Terminal Aerodrome Forecast
Issued by NWS

Home | Current Version | Previous Version | Text Only | Print | Product List | Glossary On
Versions: 1 2 3 4 5 6 7 8 9 10 11 12 13 14 15 16 17 18
067
FTUS41 KPBZ 281120
TAFZZV
TAF
KZZV 281120Z 2812/2912 13003KT 4SM -SHRA BR OVC012
     FM281300 05003KT 6SM -SHRA BR OVC008
     FM281500 34003KT P6SM OVC010
     FM281800 34007KT P6SM OVC025=

USA.gov is the U.S. government's official web portal to all federal, state and local government web resources and services.